地図

経路データ

SID SEASON NUMBER BASIN SUBBASIN NAME ISO_TIME NATURE LAT LON WMO_WIND WMO_PRES WMO_AGENCY TRACK_TYPE DIST2LAND LANDFALL IFLAG USA_AGENCY USA_ATCF_ID USA_LAT USA_LON USA_RECORD USA_STATUS USA_WIND USA_PRES USA_SSHS USA_R34_NE USA_R34_SE USA_R34_SW USA_R34_NW USA_R50_NE USA_R50_SE USA_R50_SW USA_R50_NW USA_R64_NE USA_R64_SE USA_R64_SW USA_R64_NW USA_POCI USA_ROCI USA_RMW USA_EYE TOKYO_LAT TOKYO_LON TOKYO_GRADE TOKYO_WIND TOKYO_PRES TOKYO_R50_DIR TOKYO_R50_LONG TOKYO_R50_SHORT TOKYO_R30_DIR TOKYO_R30_LONG TOKYO_R30_SHORT TOKYO_LAND CMA_LAT CMA_LON CMA_CAT CMA_WIND CMA_PRES HKO_LAT HKO_LON HKO_CAT HKO_WIND HKO_PRES NEWDELHI_LAT NEWDELHI_LON NEWDELHI_GRADE NEWDELHI_WIND NEWDELHI_PRES NEWDELHI_CI NEWDELHI_DP NEWDELHI_POCI REUNION_LAT REUNION_LON REUNION_TYPE REUNION_WIND REUNION_PRES REUNION_TNUM REUNION_CI REUNION_RMW REUNION_R34_NE REUNION_R34_SE REUNION_R34_SW REUNION_R34_NW REUNION_R50_NE REUNION_R50_SE REUNION_R50_SW REUNION_R50_NW REUNION_R64_NE REUNION_R64_SE REUNION_R64_SW REUNION_R64_NW BOM_LAT BOM_LON BOM_TYPE BOM_WIND BOM_PRES BOM_TNUM BOM_CI BOM_RMW BOM_R34_NE BOM_R34_SE BOM_R34_SW BOM_R34_NW BOM_R50_NE BOM_R50_SE BOM_R50_SW BOM_R50_NW BOM_R64_NE BOM_R64_SE BOM_R64_SW BOM_R64_NW BOM_ROCI BOM_POCI BOM_EYE BOM_POS_METHOD BOM_PRES_METHOD NADI_LAT NADI_LON NADI_CAT NADI_WIND NADI_PRES WELLINGTON_LAT WELLINGTON_LON WELLINGTON_WIND WELLINGTON_PRES DS824_LAT DS824_LON DS824_STAGE DS824_WIND DS824_PRES TD9636_LAT TD9636_LON TD9636_STAGE TD9636_WIND TD9636_PRES TD9635_LAT TD9635_LON TD9635_WIND TD9635_PRES TD9635_ROCI NEUMANN_LAT NEUMANN_LON NEUMANN_CLASS NEUMANN_WIND NEUMANN_PRES MLC_LAT MLC_LON MLC_CLASS MLC_WIND MLC_PRES USA_GUST BOM_GUST BOM_GUST_PER REUNION_GUST REUNION_GUST_PER USA_SEAHGT USA_SEARAD_NE USA_SEARAD_SE USA_SEARAD_SW USA_SEARAD_NW STORM_SPEED STORM_DIR
1985231N16142 1985 69 WP MM ODESSA 1985-08-19 00:00:00 NR 15.6000 142.000 main 1821 1810 __________O___ -1 15.6000 142.000 0 3 285
1985231N16142 1985 69 WP MM ODESSA 1985-08-19 03:00:00 NR 15.6329 141.873 main 1810 1800 __________P___ -1 15.6329 141.873 0 3 287
1985231N16142 1985 69 WP MM ODESSA 1985-08-19 06:00:00 NR 15.6726 141.748 main 1791 1781 __________P___ -1 15.6726 141.748 0 3 291
1985231N16142 1985 69 WP MM ODESSA 1985-08-19 09:00:00 NR 15.7260 141.623 main 1781 1772 __________P___ -1 15.7260 141.623 0 3 298
1985231N16142 1985 69 WP MM ODESSA 1985-08-19 12:00:00 NR 15.8000 141.500 main 1772 1762 __________O___ -1 15.8000 141.500 0 3 307
1985231N16142 1985 69 WP MM ODESSA 1985-08-19 15:00:00 NR 15.8993 141.379 main 1764 1754 __________P___ -1 15.8993 141.379 0 3 313
1985231N16142 1985 69 WP MM ODESSA 1985-08-19 18:00:00 NR 16.0199 141.257 main 1756 1737 __________P___ -1 16.0199 141.257 0 4 317
1985231N16142 1985 69 WP MM ODESSA 1985-08-19 21:00:00 NR 16.1556 141.132 main 1740 1732 __________P___ -1 16.1556 141.132 0 4 319
1985231N16142 1985 69 WP MM ODESSA 1985-08-20 00:00:00 NR 16.3000 141.000 main 1732 1724 __________O___ -1 16.3000 141.000 0 4 317
1985231N16142 1985 69 WP MM ODESSA 1985-08-20 03:00:00 NR 16.4469 140.849 main 1714 1706 __________P___ -1 16.4469 140.849 0 4 315
1985231N16142 1985 69 WP MM ODESSA 1985-08-20 06:00:00 NR 16.6000 140.693 main 1709 1691 __________P___ -1 16.6000 140.693 0 4 316
1985231N16142 1985 69 WP MM ODESSA 1985-08-20 09:00:00 NR 16.7532 140.540 main 1694 1687 __________P___ -1 16.7532 140.540 0 4 317
1985231N16142 1985 69 WP MM ODESSA 1985-08-20 12:00:00 NR 16.9000 140.400 main 1687 1680 __________O___ -1 16.9000 140.400 0 4 317
1985231N16142 1985 69 WP MM ODESSA 1985-08-20 15:00:00 NR 17.0200 140.281 main 1680 1673 __________P___ -1 17.0200 140.281 0 3 318
1985231N16142 1985 69 WP MM ODESSA 1985-08-20 18:00:00 NR 17.1349 140.177 main 1673 1666 __________P___ -1 17.1349 140.177 0 3 321
1985231N16142 1985 69 WP MM ODESSA 1985-08-20 21:00:00 NR 17.2575 140.085 main 1670 1660 __________P___ -1 17.2575 140.085 0 3 328
1985231N16142 1985 69 WP MM ODESSA 1985-08-21 00:00:00 NR 17.4000 140.000 main 1663 1657 __________O___ -1 17.4000 140.000 0 4 332
1985231N16142 1985 69 WP MM ODESSA 1985-08-21 03:00:00 NR 17.5947 139.894 main 1660 1654 __________P___ -1 17.5947 139.894 0 5 335
1985231N16142 1985 69 WP MM ODESSA 1985-08-21 06:00:00 NR 17.8075 139.798 main 1658 1652 __________P___ -1 17.8075 139.798 0 5 339
1985231N16142 1985 69 WP MM ODESSA 1985-08-21 09:00:00 NR 18.0166 139.728 main 1656 1656 __________P___ -1 18.0166 139.728 0 4 347
1985231N16142 1985 69 WP MM ODESSA 1985-08-21 12:00:00 NR 18.2000 139.700 main 1664 1664 __________O___ -1 18.2000 139.700 0 3 355
1985231N16142 1985 69 WP MM ODESSA 1985-08-21 15:00:00 NR 18.3368 139.711 main 1668 1668 __________P___ -1 18.3368 139.711 0 3 15
1985231N16142 1985 69 WP MM ODESSA 1985-08-21 18:00:00 NR 18.4449 139.767 main 1679 1669 __________P___ -1 18.4449 139.767 0 2 36
1985231N16142 1985 69 WP MM ODESSA 1985-08-21 21:00:00 NR 18.5305 139.865 main 1674 1665 __________P___ -1 18.5305 139.865 0 3 55
1985231N16142 1985 69 WP MM ODESSA 1985-08-22 00:00:00 NR 18.6000 140.000 main 1670 1665 __________O___ -1 18.6000 140.000 0 3 62
1985231N16142 1985 69 WP MM ODESSA 1985-08-22 03:00:00 NR 18.6890 140.184 main 1671 1671 __________P___ -1 18.6890 140.184 0 8 69
1985231N16142 1985 69 WP MM ODESSA 1985-08-22 06:00:00 TS 18.8902 140.800 1004 tokyo main 1684 1680 _OO_______P___ -1 19.0000 141.000 2 1004 0 0 0 19.3000 142.200 0 19 1004 18.7603 140.400 0 9 69
1985231N16142 1985 69 WP MM ODESSA 1985-08-22 09:00:00 TS 19.0001 141.022 main 1686 1686 _PP_______P___ -1 18.9875 141.013 2 1004 0 0 19.4101 141.843 0 19 1004 18.8015 140.615 0 3 60
1985231N16142 1985 69 WP MM ODESSA 1985-08-22 12:00:00 TS 19.0400 141.070 1004 tokyo main 1692 1686 _OO_______O___ -1 19.0000 141.000 2 1004 0 0 0 19.4000 141.500 0 19 1004 18.8000 140.800 0 0 0
1985231N16142 1985 69 WP MM ODESSA 1985-08-22 15:00:00 TS 19.0014 141.015 main 1686 1686 _PP_______P___ -1 19.0374 140.962 2 1004 0 0 19.2075 141.197 0 19 1004 18.7591 140.886 0 2 211
1985231N16142 1985 69 WP MM ODESSA 1985-08-22 18:00:00 TS 18.8916 140.981 1004 tokyo main 1695 1695 _OO_______P___ -1 19.0000 141.000 2 1004 0 0 0 19.0000 141.000 0 19 1004 18.6747 140.942 0 2 167
1985231N16142 1985 69 WP MM ODESSA 1985-08-22 21:00:00 TS 18.7702 141.067 main 1710 1710 _PP_______P___ -1 18.7502 141.250 2 1004 0 0 19.0074 140.948 0 24 1003 18.5529 141.002 0 3 144
1985231N16142 1985 69 WP MM ODESSA 1985-08-23 00:00:00 TS 18.6154 141.192 1004 tokyo main 1735 1735 OOO_______O___ jtwc_wp WP121985 18.4000 141.100 25 -1 18.5000 141.500 2 1004 0 0 0 19.0000 141.000 1 29 1002 18.4000 141.100 1 25 4 145
1985231N16142 1985 69 WP MM ODESSA 1985-08-23 03:00:00 TS 18.4573 141.295 main 1750 1750 PPP_______P___ WP121985 18.2001 141.363 25 -1 18.4999 141.500 2 1004 0 0 18.7800 141.078 1 29 1002 18.2207 141.274 1 26 4 146
1985231N16142 1985 69 WP MM ODESSA 1985-08-23 06:00:00 TS 18.2707 141.437 1004 tokyo main 1775 1775 OOO_______P___ jtwc_wp WP121985 18.0000 141.600 25 -1 18.5000 141.500 2 1004 0 0 0 18.5000 141.200 1 29 1002 18.0150 141.490 1 27 5 141
1985231N16142 1985 69 WP MM ODESSA 1985-08-23 09:00:00 TS 18.0454 141.640 main 1814 1814 PPP_______P___ WP121985 17.7999 141.800 27 -1 18.2876 141.713 2 1004 0 0 18.2924 141.312 1 29 1001 17.8019 141.736 1 28 6 137
1985231N16142 1985 69 WP MM ODESSA 1985-08-23 12:00:00 TS 17.8250 141.875 1004 tokyo main 1845 1845 OOO_______O___ jtwc_wp WP121985 17.6000 142.000 30 -1 18.0000 142.000 2 1004 0 0 0 18.1000 141.500 1 29 1000 17.6000 142.000 1 30 7 133
1985231N16142 1985 69 WP MM ODESSA 1985-08-23 15:00:00 TS 17.6019 142.140 main 1873 1873 PPP_______P___ WP121985 17.3850 142.235 32 -1 17.7500 142.250 2 1003 0 0 17.9225 141.805 1 29 1000 17.3504 142.269 1 32 7 130
1985231N16142 1985 69 WP MM ODESSA 1985-08-23 18:00:00 TS 17.3819 142.438 1002 tokyo main 1904 1904 OOO_______P___ jtwc_wp WP121985 17.2000 142.500 35 0 17.5000 142.500 2 1002 0 0 0 17.7000 142.200 1 29 1000 17.1276 142.551 1 35 8 129
1985231N16142 1985 69 WP MM ODESSA 1985-08-23 21:00:00 TS 17.1203 142.768 main 1940 1940 PPP_______P___ WP121985 17.0250 142.800 37 0 17.1750 142.758 2 1000 0 0 17.2902 142.681 1 29 999 16.9910 142.832 1 37 7 122
1985231N16142 1985 69 WP MM ODESSA 1985-08-24 00:00:00 TS 17.0000 143.075 35 998 tokyo main 1968 1965 OOO_______O___ jtwc_wp WP121985 17.0000 143.100 40 0 17.0000 143.000 3 35 998 0 3 100 80 0 17.0000 143.100 1 29 998 17.0000 143.100 2 40 5 85
1985231N16142 1985 69 WP MM ODESSA 1985-08-24 03:00:00 TS 17.1612 143.309 main 1958 1935 PPP_______P___ WP121985 17.2175 143.365 42 0 17.1600 143.207 3 37 996 0 3 100 80 17.0798 143.280 1 33 996 17.1876 143.383 2 42 7 40
1985231N16142 1985 69 WP MM ODESSA 1985-08-24 06:00:00 TS 17.5000 143.511 40 994 tokyo main 1935 1901 OOOO______P___ jtwc_wp WP121985 17.6000 143.600 45 0 17.5000 143.400 3 40 994 0 3 100 80 0 17.4000 143.400 2 38 994 17.4000 143.500 TD 30 993 17.5252 143.646 2 45 8 29
1985231N16142 1985 69 WP MM ODESSA 1985-08-24 09:00:00 TS 17.8973 143.737 main 1901 1859 PPPP______P___ WP121985 18.0050 143.830 47 0 17.7900 143.615 3 45 993 0 3 100 90 17.7751 143.657 2 43 992 17.9851 143.710 TD 35 991 17.9752 143.861 2 47 10 23
1985231N16142 1985 69 WP MM ODESSA 1985-08-24 12:00:00 TS 18.4105 143.921 50 992 tokyo main 1859 1802 OOOO______O___ jtwc_wp WP121985 18.5000 144.000 50 0 18.2000 143.800 4 50 992 0 9 100 100 0 18.3000 143.900 3 48 990 18.6000 143.900 TS 40 990 18.5000 144.000 2 50 12 14
1985231N16142 1985 69 WP MM ODESSA 1985-08-24 15:00:00 TS 19.0299 144.040 main 1802 1736 PPPP______P___ WP121985 19.0775 144.102 52 0 18.7975 143.937 4 50 991 0 9 100 100 18.9700 144.060 3 48 989 19.2575 144.045 TS 42 989 19.0473 144.054 2 53 13 6
1985231N16142 1985 69 WP MM ODESSA 1985-08-24 18:00:00 TS 19.6910 144.066 50 990 tokyo main 1736 1671 OOOO______P___ jtwc_wp WP121985 19.7000 144.100 55 0 19.5000 144.000 4 50 990 0 9 100 100 0 19.7000 144.100 3 48 988 19.9000 144.100 TS 45 988 19.6548 144.028 2 57 13 358
1985231N16142 1985 69 WP MM ODESSA 1985-08-24 21:00:00 TS 20.3320 143.991 main 1671 1602 PPPP______P___ WP121985 20.3075 143.988 60 0 20.2149 143.995 4 57 987 0 9 112 112 20.3800 143.988 3 53 986 20.4725 144.045 TS 47 986 20.2849 143.938 2 61 13 350
1985231N16142 1985 69 WP MM ODESSA 1985-08-25 00:00:00 TS 20.9400 143.840 65 985 tokyo main 1602 1538 OOOO______O___ jtwc_wp WP121985 20.9000 143.800 65 1 20.9000 143.900 5 65 985 9 60 60 9 125 125 0 21.0000 143.800 3 58 985 21.0000 143.900 STS 50 984 20.9000 143.800 3 65 12 345
1985231N16142 1985 69 WP MM ODESSA 1985-08-25 03:00:00 TS 21.4798 143.667 main 1538 1479 PPPP______P___ WP121985 21.4650 143.607 67 1 21.4425 143.730 5 67 982 9 60 45 9 150 112 21.5300 143.650 3 63 981 21.5150 143.715 STS 52 982 21.4467 143.632 3 67 11 342
1985231N16142 1985 69 WP MM ODESSA 1985-08-25 06:00:00 TS 21.9945 143.465 70 980 tokyo main 1479 1419 OOOO______P___ jtwc_wp WP121985 22.0000 143.400 70 1 22.0000 143.500 5 70 980 2 60 30 2 175 100 0 22.0000 143.500 4 68 978 22.0000 143.500 STS 55 980 21.9727 143.423 3 70 11 340
1985231N16142 1985 69 WP MM ODESSA 1985-08-25 09:00:00 TS 22.5335 143.255 main 1419 1360 PPPP______P___ WP121985 22.5075 143.192 72 1 22.7801 143.236 5 70 980 2 60 30 2 175 100 22.4425 143.350 4 68 978 22.4500 143.292 STS 57 980 22.4874 143.203 3 72 11 341
1985231N16142 1985 69 WP MM ODESSA 1985-08-25 12:00:00 TS 23.0600 143.060 70 980 tokyo main 1349 1300 OOOO______O___ jtwc_wp WP121985 23.0000 143.000 75 1 23.5000 143.000 5 70 980 2 60 30 2 175 100 0 22.9000 143.200 4 68 978 22.9000 143.100 STS 60 980 23.0000 143.000 4 75 11 343
1985231N16142 1985 69 WP MM ODESSA 1985-08-25 15:00:00 TS 23.5504 142.917 main 1290 1244 PPPP______P___ WP121985 23.4925 142.835 75 1 23.9024 142.884 5 70 980 2 60 30 2 175 100 23.4424 143.065 4 68 978 23.3775 142.942 STS 60 980 23.5370 142.857 4 76 10 346
1985231N16142 1985 69 WP MM ODESSA 1985-08-25 18:00:00 TS 24.0345 142.787 70 980 tokyo main 1244 1185 OOOO______P___ jtwc_wp WP121985 24.0000 142.700 75 1 24.2000 142.800 5 70 980 2 60 30 2 175 100 0 24.0000 142.900 4 68 978 23.9000 142.800 STS 60 980 24.0723 142.734 4 77 10 345
1985231N16142 1985 69 WP MM ODESSA 1985-08-25 21:00:00 TS 24.5478 142.629 main 1185 1128 PPPP______P___ WP121985 24.5500 142.592 77 1 24.5775 142.650 5 72 977 2 65 40 2 175 100 24.5076 142.643 4 68 976 24.5075 142.643 STS 62 977 24.5964 142.619 4 78 11 345
1985231N16142 1985 69 WP MM ODESSA 1985-08-26 00:00:00 TS 25.0600 142.480 75 975 tokyo main 1118 1072 OOOO______O___ jtwc_wp WP121985 25.1000 142.500 80 1 25.0000 142.500 5 75 975 8 70 50 8 175 100 0 25.0000 142.400 4 68 974 25.1000 142.500 T 65 975 25.1000 142.500 4 80 10 347
1985231N16142 1985 69 WP MM ODESSA 1985-08-26 03:00:00 TS 25.5612 142.368 main 1061 1016 PPPP______P___ WP121985 25.6224 142.415 80 1 25.4925 142.392 5 75 975 8 70 50 8 175 100 25.5074 142.270 4 72 971 25.5799 142.400 T 65 972 25.6039 142.365 4 81 10 349
1985231N16142 1985 69 WP MM ODESSA 1985-08-26 06:00:00 TS 26.0365 142.264 75 975 tokyo main 1016 960 OOOO______P___ jtwc_wp WP121985 26.1000 142.300 80 1 26.0000 142.300 5 75 975 8 70 50 8 175 100 0 26.0000 142.200 4 77 968 26.0000 142.300 T 65 970 26.0823 142.222 4 82 9 348
1985231N16142 1985 69 WP MM ODESSA 1985-08-26 09:00:00 TS 26.4849 142.152 main 960 911 PPPP______P___ WP121985 26.5300 142.115 82 1 26.4798 142.237 5 75 972 8 60 40 8 162 87 26.4724 142.172 4 77 967 26.4225 142.165 T 65 967 26.5195 142.068 4 83 9 344
1985231N16142 1985 69 WP MM ODESSA 1985-08-26 12:00:00 TS 26.8800 142.000 75 970 tokyo main 911 873 OOOO______O___ jtwc_wp WP121985 26.9000 141.900 85 2 26.9000 142.100 5 75 970 8 50 30 8 150 75 0 26.9000 142.100 4 77 967 26.8000 142.000 T 65 965 26.9000 141.900 4 85 8 335
1985231N16142 1985 69 WP MM ODESSA 1985-08-26 15:00:00 TS 27.2219 141.772 main 873 832 PPPP______P___ WP121985 27.2300 141.700 85 2 27.2378 141.750 5 75 967 8 60 40 8 150 75 27.2876 141.873 4 77 966 27.1225 141.815 T 67 965 27.2317 141.722 4 85 8 326
1985231N16142 1985 69 WP MM ODESSA 1985-08-26 18:00:00 TS 27.5010 141.526 75 965 tokyo main 832 805 OOOO______P___ jtwc_wp WP121985 27.5000 141.500 85 2 27.5000 141.400 5 75 965 8 70 50 8 150 75 0 27.6000 141.600 4 77 965 27.4000 141.600 T 70 965 27.5048 141.530 4 85 6 323
1985231N16142 1985 69 WP MM ODESSA 1985-08-26 21:00:00 TS 27.7360 141.330 main 805 781 PPPP______P___ WP121985 27.7224 141.307 85 2 27.7223 141.277 5 75 965 8 70 50 8 150 75 27.8374 141.392 4 77 965 27.6725 141.350 T 70 965 27.7255 141.322 4 85 5 321
1985231N16142 1985 69 WP MM ODESSA 1985-08-27 00:00:00 TS 27.9200 141.140 75 965 tokyo main 778 754 OOOO______O___ jtwc_wp WP121985 27.9000 141.100 85 2 27.9000 141.200 5 75 965 8 70 50 8 150 75 0 28.0000 141.200 4 77 965 27.9000 141.100 T 70 965 27.9000 141.100 4 85 5 315
1985231N16142 1985 69 WP MM ODESSA 1985-08-27 03:00:00 TS 28.0836 140.941 main 751 736 PPPP______P___ WP121985 28.0725 140.858 87 2 28.0799 141.038 5 75 965 8 70 50 8 150 75 28.1223 141.022 4 77 965 28.0799 140.907 T 70 965 28.0632 140.880 4 86 5 306
1985231N16142 1985 69 WP MM ODESSA 1985-08-27 06:00:00 TS 28.1964 140.709 75 965 tokyo main 736 718 OOOO______P___ jtwc_wp WP121985 28.2000 140.600 90 2 28.2000 140.800 5 75 965 8 70 50 8 150 75 0 28.2000 140.800 4 77 965 28.2000 140.700 T 70 965 28.1821 140.645 4 87 5 292
1985231N16142 1985 69 WP MM ODESSA 1985-08-27 09:00:00 TS 28.2645 140.421 main 718 701 PPPP______P___ WP121985 28.2724 140.357 90 2 28.2301 140.472 5 75 965 8 70 50 8 150 75 28.2801 140.473 4 77 965 28.2800 140.415 T 70 965 28.2600 140.387 4 88 5 279
1985231N16142 1985 69 WP MM ODESSA 1985-08-27 12:00:00 TS 28.2800 140.100 75 965 tokyo main 701 684 OOOO______O___ jtwc_wp WP121985 28.3000 140.100 90 2 28.2000 140.100 5 75 965 8 70 50 8 150 75 0 28.3000 140.100 4 77 965 28.3000 140.100 T 70 965 28.3000 140.100 4 90 6 268
1985231N16142 1985 69 WP MM ODESSA 1985-08-27 15:00:00 TS 28.2449 139.785 main 694 678 PPPP______P___ WP121985 28.3149 139.823 87 2 28.1424 139.750 5 75 965 8 70 50 8 150 75 28.2074 139.750 4 77 965 28.2574 139.807 T 72 965 28.3025 139.794 4 88 6 261
1985231N16142 1985 69 WP MM ODESSA 1985-08-27 18:00:00 TS 28.1944 139.452 75 965 tokyo main 678 659 OOOO______P___ jtwc_wp WP121985 28.3000 139.500 85 2 28.1000 139.400 5 75 965 8 70 50 8 150 75 0 28.1000 139.400 4 77 965 28.2000 139.500 T 75 965 28.2720 139.459 4 87 6 264
1985231N16142 1985 69 WP MM ODESSA 1985-08-27 21:00:00 TS 28.1785 139.101 main 659 642 PPPP______P___ WP121985 28.2499 139.122 85 2 28.1424 139.058 5 75 965 8 65 55 8 137 100 28.0774 139.058 4 77 965 28.1923 139.173 T 75 965 28.2305 139.094 4 86 6 269
1985231N16142 1985 69 WP MM ODESSA 1985-08-28 00:00:00 TS 28.1800 138.720 75 965 tokyo main 642 627 OOOO______O___ jtwc_wp WP121985 28.2000 138.700 85 2 28.2000 138.700 5 75 965 9 60 60 9 125 125 0 28.1000 138.700 4 77 965 28.2000 138.800 T 75 965 28.2000 138.700 4 85 7 270
1985231N16142 1985 69 WP MM ODESSA 1985-08-28 03:00:00 TS 28.1826 138.308 main 627 613 PPPP______P___ WP121985 28.1849 138.257 87 2 28.2074 138.315 5 75 965 9 60 60 9 125 125 28.1424 138.315 4 77 963 28.1925 138.365 T 75 965 28.1861 138.286 4 86 8 271
1985231N16142 1985 69 WP MM ODESSA 1985-08-28 06:00:00 TS 28.1979 137.869 75 965 tokyo main 613 599 OOOO______P___ jtwc_wp WP121985 28.2000 137.800 90 2 28.2000 137.900 5 75 965 9 60 60 9 125 125 0 28.2000 137.900 4 77 962 28.2000 137.900 T 75 965 28.1897 137.844 4 87 8 273
1985231N16142 1985 69 WP MM ODESSA 1985-08-28 09:00:00 TS 28.2181 137.422 main 599 580 PPPP______P___ WP121985 28.2274 137.350 90 2 28.1773 137.465 5 77 962 9 60 60 9 125 125 28.2349 137.457 4 77 961 28.2273 137.457 T 75 962 28.2234 137.380 4 88 8 276
1985231N16142 1985 69 WP MM ODESSA 1985-08-28 12:00:00 TS 28.2800 136.960 80 960 tokyo main 580 561 OOOO______O___ jtwc_wp WP121985 28.3000 136.900 90 2 28.2000 137.000 5 80 960 9 60 60 9 125 125 0 28.3000 137.000 4 77 960 28.3000 137.000 T 75 960 28.3000 136.900 4 90 8 283
1985231N16142 1985 69 WP MM ODESSA 1985-08-28 15:00:00 TS 28.3995 136.501 main 561 535 PPPP______P___ WP121985 28.4272 136.465 90 2 28.3123 136.515 5 80 960 9 60 60 9 125 125 28.4197 136.565 4 77 960 28.4199 136.507 T 77 960 28.4182 136.454 4 88 9 290
1985231N16142 1985 69 WP MM ODESSA 1985-08-28 18:00:00 TS 28.5760 136.018 80 960 tokyo main 535 489 OOOO______P___ jtwc_wp WP121985 28.6000 136.000 90 2 28.5000 136.000 5 80 960 9 60 60 9 125 125 0 28.6000 136.100 4 77 960 28.6000 136.000 T 80 960 28.5802 135.989 4 87 10 294
1985231N16142 1985 69 WP MM ODESSA 1985-08-28 21:00:00 TS 28.7872 135.508 main 489 437 PPPP______P___ WP121985 28.7773 135.480 87 2 28.7272 135.472 5 80 957 9 60 60 9 125 125 28.8273 135.580 4 77 958 28.8269 135.530 T 80 957 28.7771 135.479 4 86 11 296
1985231N16142 1985 69 WP MM ODESSA 1985-08-29 00:00:00 TS 29.0400 134.940 80 955 tokyo main 429 370 OOOO______O___ jtwc_wp WP121985 29.0000 134.900 85 2 29.0000 134.900 5 80 955 9 60 60 9 125 125 0 29.1000 135.000 4 77 957 29.1000 135.000 T 80 955 29.0000 134.900 4 85 12 298
1985231N16142 1985 69 WP MM ODESSA 1985-08-29 03:00:00 TS 29.3360 134.319 main 363 290 PPPP______P___ WP121985 29.2994 134.295 85 2 29.3068 134.302 5 80 955 9 60 60 9 125 125 29.4069 134.395 4 77 958 29.4147 134.353 T 80 957 29.2521 134.251 4 85 13 297
1985231N16142 1985 69 WP MM ODESSA 1985-08-29 06:00:00 TS 29.6242 133.606 80 955 tokyo main 290 228 OOOO______P___ jtwc_wp WP121985 29.6000 133.600 85 2 29.6000 133.600 5 80 955 9 60 60 9 125 125 0 29.7000 133.700 4 77 959 29.7000 133.600 T 80 960 29.5211 133.529 4 85 14 291
1985231N16142 1985 69 WP MM ODESSA 1985-08-29 09:00:00 TS 29.8465 132.803 main 223 166 PPPP______P___ WP121985 29.8220 132.802 85 2 29.8223 132.752 5 77 957 9 55 55 9 112 112 29.9292 132.917 4 77 959 29.8792 132.802 T 77 960 29.7796 132.742 4 85 15 285
1985231N16142 1985 69 WP MM ODESSA 1985-08-29 12:00:00 TS 30.0200 131.900 75 960 tokyo main 160 91 OOOO______O___ jtwc_wp WP121985 30.0000 131.900 85 2 30.0000 131.800 5 75 960 9 50 50 9 100 100 0 30.1000 132.000 4 77 959 30.0000 131.900 T 75 960 30.0000 131.900 4 85 17 281
1985231N16142 1985 69 WP MM ODESSA 1985-08-29 15:00:00 TS 30.1760 130.892 main 91 89 PPPP______P___ WP121985 30.1727 130.900 85 2 30.1722 130.808 5 72 962 9 50 50 9 100 100 30.2306 130.908 4 77 959 30.1153 130.857 T 75 960 30.1891 130.990 4 85 18 279
1985231N16142 1985 69 WP MM ODESSA 1985-08-29 18:00:00 TS 30.2859 129.867 70 965 tokyo main 104 104 OOOO______P___ jtwc_wp WP121985 30.3000 129.900 85 2 30.3000 129.800 5 70 965 9 50 50 9 100 100 0 30.3000 129.800 4 77 959 30.2000 129.800 T 75 960 30.3295 130.037 4 85 17 276
1985231N16142 1985 69 WP MM ODESSA 1985-08-29 21:00:00 TS 30.3470 128.922 main 159 159 PPPP______P___ WP121985 30.3793 129.012 85 2 30.3799 128.805 5 70 965 9 50 50 9 100 100 30.3141 128.847 4 77 959 30.2568 128.855 T 75 960 30.4048 129.090 4 85 16 273
1985231N16142 1985 69 WP MM ODESSA 1985-08-30 00:00:00 TS 30.3600 128.060 70 965 tokyo main 219 219 OOOO______O___ jtwc_wp WP121985 30.4000 128.200 85 2 30.4000 127.900 5 70 965 9 50 50 9 100 100 0 30.3000 128.000 4 77 959 30.3000 128.000 T 75 960 30.4000 128.200 4 85 15 270
1985231N16142 1985 69 WP MM ODESSA 1985-08-30 03:00:00 TS 30.3402 127.236 main 303 303 PPPP______P___ WP121985 30.4020 127.420 85 2 30.3795 127.117 5 70 965 9 50 50 9 100 100 30.3074 127.175 4 72 959 30.3648 127.183 T 75 965 30.2474 127.285 4 83 13 266
1985231N16142 1985 69 WP MM ODESSA 1985-08-30 06:00:00 TS 30.2656 126.531 70 965 tokyo main 323 323 OOOO______P___ jtwc_wp WP121985 30.3000 126.700 85 2 30.3000 126.500 5 70 965 9 50 50 9 100 100 0 30.3000 126.500 4 68 960 30.4000 126.500 T 75 970 30.0281 126.457 4 82 11 259
1985231N16142 1985 69 WP MM ODESSA 1985-08-30 09:00:00 TS 30.1272 125.945 main 347 347 PPPP______P___ WP121985 29.9629 125.936 82 1 30.1797 126.002 5 72 970 9 45 45 9 90 90 30.2719 126.025 4 68 965 30.4021 125.960 T 70 972 29.8195 125.802 4 81 9 251
1985231N16142 1985 69 WP MM ODESSA 1985-08-30 12:00:00 TS 29.9800 125.560 75 975 tokyo main 356 327 OOOO______O___ jtwc_wp WP121985 29.7000 125.400 80 1 30.0000 125.700 5 75 975 9 40 40 9 80 80 0 30.2000 125.700 4 68 970 30.3000 125.600 T 65 975 29.7000 125.400 4 80 6 242
1985231N16142 1985 69 WP MM ODESSA 1985-08-30 15:00:00 TS 29.8480 125.343 main 325 325 PPPP______P___ WP121985 29.8318 125.243 75 1 29.7047 125.553 5 67 975 9 35 35 9 75 75 30.0273 125.330 4 63 975 29.9621 125.322 T 62 977 29.7142 125.268 4 75 2 222
1985231N16142 1985 69 WP MM ODESSA 1985-08-30 18:00:00 TS 29.8072 125.379 60 975 tokyo main 335 335 OOOO______P___ jtwc_wp WP121985 30.1000 125.400 70 1 29.5000 125.600 4 60 975 9 30 30 9 70 70 0 29.9000 125.200 3 58 980 29.7000 125.300 STS 60 980 29.8359 125.394 4 70 3 79
1985231N16142 1985 69 WP MM ODESSA 1985-08-30 21:00:00 TS 29.8991 125.632 main 356 346 PPPP______P___ WP121985 30.2274 125.711 65 1 29.5218 125.724 4 57 977 9 30 30 9 70 70 29.9019 125.437 3 58 980 29.7796 125.566 STS 57 982 30.0648 125.722 4 65 7 61
1985231N16142 1985 69 WP MM ODESSA 1985-08-31 00:00:00 TS 30.1600 126.120 55 980 tokyo main 335 301 OOOO______O___ jtwc_wp WP121985 30.4000 126.200 60 0 29.8000 126.100 4 55 980 9 30 30 9 70 70 0 30.1000 126.000 3 58 980 30.1000 126.100 STS 55 985 30.4000 126.200 2 60 12 57
1985231N16142 1985 69 WP MM ODESSA 1985-08-31 03:00:00 TS 30.5551 126.799 main 290 249 PPPP______P___ WP121985 30.6673 126.749 57 0 30.3038 126.854 4 55 980 9 30 30 9 70 70 30.5040 126.834 3 53 982 30.5107 126.820 STS 52 987 30.7895 126.738 2 57 16 52
1985231N16142 1985 69 WP MM ODESSA 1985-08-31 06:00:00 TS 31.1160 127.561 55 980 tokyo main 247 166 OOOO______P___ jtwc_wp WP121985 31.1000 127.400 55 0 31.0000 127.700 4 55 980 9 30 30 9 70 70 0 31.1000 127.700 3 48 985 31.1000 127.600 STS 50 990 31.2798 127.407 2 55 17 44
1985231N16142 1985 69 WP MM ODESSA 1985-08-31 09:00:00 TS 31.8075 128.208 main 166 84 PPPP______P___ WP121985 31.7254 128.150 52 0 31.7767 128.289 4 55 982 9 30 30 9 75 75 31.8113 128.232 3 48 985 31.8694 128.223 STS 50 990 31.8550 128.148 2 52 18 36
1985231N16142 1985 69 WP MM ODESSA 1985-08-31 12:00:00 TS 32.5800 128.820 55 985 tokyo main 81 18 OOOO______O___ jtwc_wp WP121985 32.5000 128.900 50 0 32.6000 128.800 4 55 985 9 30 30 9 80 80 0 32.6000 128.700 3 48 986 32.7000 128.800 STS 50 990 32.5000 128.900 2 50 18 34
1985231N16142 1985 69 WP MM ODESSA 1985-08-31 15:00:00 TS 33.3416 129.415 main 18 14 PPPP______P___ WP121985 33.3565 129.501 47 0 33.3714 129.300 4 52 987 9 9 80 80 33.3570 129.299 3 48 988 33.4216 129.364 STS 47 991 33.2015 129.613 2 47 18 34
1985231N16142 1985 69 WP MM ODESSA 1985-08-31 18:00:00 TS 34.0966 130.046 50 990 tokyo main 56 42 OOOO______P___ jtwc_wp WP121985 34.2000 130.100 45 0 34.1000 129.900 4 50 990 0 9 80 80 0 34.1000 130.000 3 48 990 34.1000 130.000 TS 45 993 33.9453 130.289 2 45 18 38
1985231N16142 1985 69 WP MM ODESSA 1985-08-31 21:00:00 TS 34.7936 130.772 main 56 56 PPPP______P___ WP121985 34.8784 130.763 42 0 34.7717 130.704 4 47 991 0 9 80 80 34.8064 130.777 3 43 990 34.7562 130.755 TS 42 995 34.7167 130.946 2 42 19 45
1985231N16142 1985 69 WP MM ODESSA 1985-09-01 00:00:00 TS 35.4500 131.675 45 992 tokyo main 71 52 OOOO______O___ jtwc_wp WP121985 35.5000 131.600 40 0 35.4000 131.700 3 45 992 0 9 80 80 0 35.5000 131.700 2 38 990 35.4000 131.700 TS 40 997 35.5000 131.600 2 40 21 51
1985231N16142 1985 69 WP MM ODESSA 1985-09-01 03:00:00 TS 36.1218 132.819 main 67 67 PPPP__________ WP121985 36.1437 132.712 40 0 36.0300 132.855 3 995 0 9 36.2446 132.789 2 38 992 36.0796 132.867 TS 37 999 2 23 57
1985231N16142 1985 69 WP MM ODESSA 1985-09-01 06:00:00 TS 36.7385 134.092 998 tokyo main 125 125 OOOO__________ jtwc_wp WP121985 36.8000 134.000 40 0 36.6000 134.100 2 998 0 0 0 36.9000 134.000 2 38 994 36.7000 134.200 TS 35 1002 2 23 60
1985231N16142 1985 69 WP MM ODESSA 1985-09-01 09:00:00 TS 37.2685 135.313 main 124 28 _PPP__________ WP121985 -1 37.1358 135.217 2 1001 0 0 37.4163 135.160 2 33 996 37.2535 135.561 TS 32 1003 2 22 67
1985231N16142 1985 69 WP MM ODESSA 1985-09-01 12:00:00 TS 37.5900 136.650 1004 tokyo main 23 22 _OOO__________ -1 37.5000 136.500 2 1004 0 0 0 37.7000 136.500 1 29 998 37.6000 137.000 TD 30 1004 24 81
1985231N16142 1985 69 WP MM ODESSA 1985-09-01 15:00:00 TS 37.6377 138.266 main 28 0 _PPP__________ -1 37.6071 138.206 2 1006 0 0 37.6926 138.159 1 26 999 37.6439 138.491 TD 27 1006 27 92
1985231N16142 1985 69 WP MM ODESSA 1985-09-01 18:00:00 TS 37.5000 140.000 1008 tokyo main 0 0 _OOO__________ -1 37.5000 140.000 2 1008 0 0 0 37.5000 140.000 1 23 1000 37.5000 140.000 TD 25 1008 26 98
1985231N16142 1985 69 WP MM ODESSA 1985-09-01 21:00:00 TS 37.2782 141.579 main 52 52 _P____________ -1 37.2782 141.579 2 1010 0 0 1 TD 24 102
1985231N16142 1985 69 WP MM ODESSA 1985-09-02 00:00:00 TS 37.0000 143.000 1012 tokyo main 177 _O____________ -1 37.0000 143.000 2 1012 0 0 0 23 104

デジタル台風データ・検索

IBTrACS Databaseについて

本データベースは、米国NOAAが公開する1842年以降の世界の熱帯低気圧のベストトラックデータアーカイブInternational Best Track Archive for Climate Stewardship (IBTrACS)を、ウェブで閲覧しやすい形式に変換したものです。

最終更新日:2021-10-08